Stoke Newington, United Kingdom
Current Conditions -  °F | °C
As of 3:50 AM on Friday 31 Oct 2014 (Local Time) from EGLC Reporting Station
Haze Haze  
Wind Chill: 15°   Ceiling: Unl
Heat Index: 15°   Visibility: 3mi
Dew Point: 13°   Wind: 5mph
Humidity: 88%   Direction: 190°S
Pressure: 30.06"   Gusts: NA
Location:  51.56°N, 0.08°W
Report Text: EGLC 310350Z AUTO 19004KT 130V250 4900 BR NCD 15/13 Q1018
Loading
Personal Weather Stations






























Interactive Weather Map
Tropical Storm Tracking
New forecast layout! Learn more

10-Day Weather Forecast

Advertisements
Track Severe Weather on mobile